createdAt,value
2018-11-14T00:00:15.480Z,12.57
2018-11-14T00:02:43.569Z,9.37
2018-11-14T00:05:11.663Z,15.90
2018-11-14T00:07:39.772Z,13.17
2018-11-14T00:10:08.543Z,10.40
2018-11-14T00:12:36.616Z,11.57
2018-11-14T00:15:05.148Z,7.70
2018-11-14T00:17:33.252Z,15.03
2018-11-14T00:20:01.362Z,18.60
2018-11-14T00:22:29.466Z,19.67
2018-11-14T00:24:57.561Z,11.97
2018-11-14T00:27:25.703Z,14.13
2018-11-14T00:29:53.820Z,22.23
2018-11-14T00:32:21.947Z,14.17
2018-11-14T00:34:50.110Z,13.43
2018-11-14T00:37:18.210Z,13.40
2018-11-14T00:39:46.324Z,12.90
2018-11-14T00:42:14.460Z,11.97
2018-11-14T00:44:42.602Z,14.93
2018-11-14T00:47:10.728Z,12.27
2018-11-14T00:49:38.939Z,13.43
2018-11-14T00:52:07.059Z,11.87
2018-11-14T00:54:35.209Z,12.00
2018-11-14T00:57:03.367Z,12.77
2018-11-14T00:59:31.493Z,12.07
2018-11-14T01:01:59.636Z,11.67
2018-11-14T01:04:27.733Z,12.03
2018-11-14T01:06:55.857Z,11.87
2018-11-14T01:09:23.980Z,10.70
2018-11-14T01:11:52.092Z,46.30
2018-11-14T01:14:20.209Z,42.23
2018-11-14T01:16:48.341Z,190.73
2018-11-14T01:19:16.515Z,121.20
2018-11-14T01:21:44.769Z,163.87
2018-11-14T01:24:12.833Z,264.17
2018-11-14T01:26:40.973Z,118.90
2018-11-14T01:29:09.132Z,109.93
2018-11-14T01:31:37.283Z,172.40
2018-11-14T01:34:05.433Z,169.53
2018-11-14T01:36:33.535Z,267.97
2018-11-14T01:39:01.684Z,134.93
2018-11-14T01:41:29.807Z,194.87
2018-11-14T01:43:57.944Z,403.83
2018-11-14T01:46:26.065Z,469.23
2018-11-14T01:48:54.221Z,76.47
2018-11-14T01:51:22.377Z,155.47
2018-11-14T01:53:50.522Z,149.93
2018-11-14T01:56:18.679Z,87.57
2018-11-14T01:58:46.827Z,129.70
2018-11-14T02:01:14.980Z,98.73
2018-11-14T02:03:43.117Z,217.17
2018-11-14T02:06:11.256Z,209.80
2018-11-14T02:08:39.393Z,230.37
2018-11-14T02:11:07.535Z,214.57
2018-11-14T02:13:35.679Z,313.23
2018-11-14T02:16:03.828Z,146.27
2018-11-14T02:18:31.996Z,236.93
2018-11-14T02:21:00.148Z,125.63
2018-11-14T02:23:28.298Z,447.63
2018-11-14T02:25:56.495Z,368.63
2018-11-14T02:28:24.669Z,299.77
2018-11-14T02:30:52.839Z,529.60
2018-11-14T02:33:21.003Z,217.60
2018-11-14T02:35:49.149Z,306.90
2018-11-14T02:38:17.291Z,295.43
2018-11-14T02:40:45.447Z,270.17
2018-11-14T02:43:13.624Z,122.57
2018-11-14T02:45:41.791Z,169.80
2018-11-14T02:48:09.949Z,255.63
2018-11-14T02:50:38.132Z,159.63
2018-11-14T02:53:06.344Z,303.47
2018-11-14T02:55:34.462Z,221.10
2018-11-14T02:58:02.547Z,193.03
2018-11-14T03:00:30.632Z,201.60
2018-11-14T03:02:58.725Z,283.40
2018-11-14T03:05:26.813Z,186.47
2018-11-14T03:07:54.914Z,232.00
2018-11-14T03:10:23.004Z,138.00
2018-11-14T03:12:51.104Z,154.37
2018-11-14T03:15:20.958Z,241.33
2018-11-14T03:17:49.086Z,171.03
2018-11-14T03:20:19.562Z,131.47
2018-11-14T03:22:47.720Z,118.17
2018-11-14T03:25:16.020Z,144.17
2018-11-14T03:27:44.174Z,93.03
2018-11-14T03:30:15.022Z,164.03
2018-11-14T03:32:43.732Z,163.87
2018-11-14T03:35:12.717Z,175.97
2018-11-14T03:37:40.808Z,286.47
2018-11-14T03:40:10.801Z,110.57
2018-11-14T03:42:38.984Z,50.90
2018-11-14T03:45:07.965Z,52.30
2018-11-14T03:47:36.056Z,63.37
2018-11-14T03:50:04.428Z,67.77
2018-11-14T03:52:32.530Z,119.83
2018-11-14T03:55:00.655Z,65.63
2018-11-14T03:57:28.732Z,100.43
2018-11-14T03:59:56.830Z,110.83
2018-11-14T04:02:24.923Z,125.27
2018-11-14T04:04:53.040Z,43.03
2018-11-14T04:07:21.120Z,41.63
2018-11-14T04:09:49.213Z,38.33
2018-11-14T04:12:17.298Z,33.53
2018-11-14T04:14:45.391Z,26.07
2018-11-14T04:17:13.475Z,32.47
2018-11-14T04:19:41.571Z,41.33
2018-11-14T04:22:09.650Z,60.73
2018-11-14T04:24:37.742Z,29.63
2018-11-14T04:27:05.857Z,27.87
2018-11-14T04:29:33.945Z,61.40
2018-11-14T04:32:02.014Z,32.37
2018-11-14T04:34:30.099Z,16.40
2018-11-14T04:36:58.164Z,23.20
2018-11-14T04:39:26.245Z,16.73
2018-11-14T04:41:54.318Z,12.70
2018-11-14T04:44:22.409Z,16.50
2018-11-14T04:46:50.483Z,10.10
2018-11-14T04:49:18.561Z,11.33
2018-11-14T04:51:46.653Z,23.10
2018-11-14T04:54:14.734Z,17.37
2018-11-14T04:56:42.815Z,26.87
2018-11-14T04:59:10.903Z,21.13
2018-11-14T05:01:38.977Z,34.67
2018-11-14T05:04:07.052Z,72.93
2018-11-14T05:06:35.224Z,39.03
2018-11-14T05:09:03.483Z,46.33
2018-11-14T05:11:31.558Z,38.50
2018-11-14T05:13:59.636Z,39.80
2018-11-14T05:16:27.708Z,29.63
2018-11-14T05:18:55.776Z,26.23
2018-11-14T05:21:23.863Z,23.60
2018-11-14T05:23:51.948Z,48.30
2018-11-14T05:26:20.025Z,57.20
2018-11-14T05:28:48.129Z,78.97
2018-11-14T05:31:16.225Z,56.13
2018-11-14T05:33:44.305Z,32.73
2018-11-14T05:36:12.406Z,20.97
2018-11-14T05:38:40.486Z,36.43
2018-11-14T05:41:08.576Z,19.07
2018-11-14T05:43:36.661Z,27.83
2018-11-14T05:46:04.984Z,39.30
2018-11-14T05:48:33.079Z,19.83
2018-11-14T05:51:01.272Z,12.10
2018-11-14T05:53:29.358Z,12.93
2018-11-14T05:55:57.455Z,13.90
2018-11-14T05:58:25.542Z,10.70
2018-11-14T06:00:53.640Z,10.77
2018-11-14T06:03:21.721Z,11.50
2018-11-14T06:05:49.807Z,9.47
2018-11-14T06:08:17.895Z,14.63
2018-11-14T06:10:45.988Z,10.00
2018-11-14T06:13:14.120Z,10.90
2018-11-14T06:15:42.219Z,6.40
2018-11-14T06:18:10.301Z,6.20
2018-11-14T06:20:38.375Z,9.67
2018-11-14T06:23:06.486Z,7.90
2018-11-14T06:25:35.743Z,8.23
2018-11-14T06:28:05.790Z,9.63
2018-11-14T06:30:34.555Z,7.50
2018-11-14T06:33:03.560Z,8.50
2018-11-14T06:35:31.640Z,12.97
2018-11-14T06:37:59.733Z,13.83
2018-11-14T06:40:27.837Z,13.20
2018-11-14T06:42:55.931Z,15.43
2018-11-14T06:45:25.284Z,11.13
2018-11-14T06:47:54.559Z,13.47
2018-11-14T06:50:22.694Z,13.13
2018-11-14T06:52:52.337Z,16.07
2018-11-14T06:55:20.807Z,20.60
2018-11-14T06:57:48.901Z,11.63
2018-11-14T07:00:23.155Z,10.23
2018-11-14T07:02:51.816Z,17.27
2018-11-14T07:05:19.989Z,13.27
2018-11-14T07:07:48.017Z,16.10
2018-11-14T07:10:18.791Z,13.50
2018-11-14T07:12:46.862Z,10.20
2018-11-14T07:15:16.261Z,12.27
2018-11-14T07:17:45.049Z,12.30
2018-11-14T07:20:20.298Z,10.50
2018-11-14T07:22:48.381Z,10.83
2018-11-14T07:25:17.046Z,11.73
2018-11-14T07:27:45.413Z,12.60
2018-11-14T07:30:17.693Z,13.60
2018-11-14T07:32:47.083Z,9.77
2018-11-14T07:35:15.987Z,10.80
2018-11-14T07:37:48.491Z,10.53
2018-11-14T07:40:16.572Z,11.83
2018-11-14T07:42:44.647Z,11.30
2018-11-14T07:45:14.010Z,18.07
2018-11-14T07:47:42.281Z,21.57
2018-11-14T07:50:15.362Z,42.53
2018-11-14T07:52:44.296Z,21.37
2018-11-14T07:55:12.859Z,27.40
2018-11-14T07:57:40.967Z,38.00
2018-11-14T08:00:13.535Z,43.70
2018-11-14T08:02:41.632Z,40.40
2018-11-14T08:05:09.825Z,27.73
2018-11-14T08:07:37.931Z,27.93
2018-11-14T08:10:08.067Z,148.60
2018-11-14T08:12:36.156Z,32.13
2018-11-14T08:15:04.289Z,44.10
2018-11-14T08:17:32.391Z,46.00
2018-11-14T08:20:00.861Z,67.03
2018-11-14T08:22:28.945Z,50.70
2018-11-14T08:24:57.080Z,25.47
2018-11-14T08:27:25.177Z,33.13
2018-11-14T08:29:53.262Z,29.67
2018-11-14T08:32:21.347Z,20.27
2018-11-14T08:34:49.419Z,24.10
2018-11-14T08:37:17.494Z,22.00
2018-11-14T08:39:45.570Z,32.80
2018-11-14T08:42:13.654Z,26.67
2018-11-14T08:44:41.729Z,19.53
2018-11-14T08:47:09.911Z,23.43
2018-11-14T08:49:37.997Z,22.80
2018-11-14T08:52:06.103Z,24.27
2018-11-14T08:54:34.185Z,21.70
2018-11-14T08:57:02.275Z,23.93
2018-11-14T08:59:30.350Z,26.77
2018-11-14T09:01:58.438Z,27.77
2018-11-14T09:04:26.510Z,27.20
2018-11-14T09:06:54.599Z,27.60
2018-11-14T09:09:22.671Z,21.83
2018-11-14T09:11:50.756Z,19.60
2018-11-14T09:14:18.880Z,18.73
2018-11-14T09:16:46.933Z,19.00
2018-11-14T09:19:15.002Z,22.87
2018-11-14T09:21:43.173Z,21.43
2018-11-14T09:24:11.242Z,19.37
2018-11-14T09:26:39.320Z,18.43
2018-11-14T09:29:07.407Z,17.10
2018-11-14T09:31:35.477Z,16.30
2018-11-14T09:34:03.638Z,17.40
2018-11-14T09:36:31.642Z,19.27
2018-11-14T09:38:59.729Z,28.37
2018-11-14T09:41:27.895Z,41.57
2018-11-14T09:43:55.927Z,21.57
2018-11-14T09:46:24.051Z,14.13
2018-11-14T09:48:52.134Z,12.43
2018-11-14T09:51:20.206Z,15.47
2018-11-14T09:53:48.287Z,20.83
2018-11-14T09:56:16.400Z,16.20
2018-11-14T09:58:44.489Z,17.13
2018-11-14T10:01:12.507Z,13.67
2018-11-14T10:03:40.618Z,15.30
2018-11-14T10:06:08.678Z,17.27
2018-11-14T10:08:36.811Z,15.50
2018-11-14T10:11:05.209Z,15.00
2018-11-14T10:13:33.286Z,12.20
2018-11-14T10:16:01.358Z,12.50
2018-11-14T10:18:29.511Z,11.97
2018-11-14T10:20:57.550Z,11.20
2018-11-14T10:23:25.632Z,12.23
2018-11-14T10:25:53.707Z,11.77
2018-11-14T10:28:21.821Z,13.67
2018-11-14T10:30:49.892Z,7.83
2018-11-14T10:33:17.969Z,11.17
2018-11-14T10:35:46.046Z,14.77
2018-11-14T10:38:14.121Z,13.10
2018-11-14T10:40:42.206Z,10.90
2018-11-14T10:43:10.376Z,13.53
2018-11-14T10:45:38.365Z,15.80
2018-11-14T10:48:06.442Z,15.13
2018-11-14T10:50:34.527Z,14.83
2018-11-14T10:53:02.621Z,13.73
2018-11-14T10:55:30.709Z,17.73
2018-11-14T10:57:58.867Z,17.33
2018-11-14T11:00:32.546Z,14.73
2018-11-14T11:03:06.894Z,16.57
2018-11-14T11:05:44.083Z,13.37
2018-11-14T11:08:18.544Z,6.47
2018-11-14T11:10:48.167Z,13.60
2018-11-14T11:13:21.571Z,13.33
2018-11-14T11:15:55.086Z,14.10
2018-11-14T11:18:26.403Z,11.00
2018-11-14T11:20:54.546Z,15.20
2018-11-14T11:23:22.715Z,8.27
2018-11-14T11:25:50.741Z,14.67
2018-11-14T11:28:18.845Z,6.93
2018-11-14T11:30:47.030Z,22.43
2018-11-14T11:33:15.038Z,16.63
2018-11-14T11:35:43.148Z,14.70
2018-11-14T11:38:11.246Z,16.53
2018-11-14T11:40:39.343Z,14.03
2018-11-14T11:43:07.462Z,13.33
2018-11-14T11:45:36.019Z,17.13
2018-11-14T11:48:04.119Z,9.20
2018-11-14T11:50:32.333Z,17.50
2018-11-14T11:53:00.858Z,20.77
2018-11-14T11:55:28.934Z,22.17
2018-11-14T11:57:57.057Z,23.67
2018-11-14T12:00:25.261Z,17.10
2018-11-14T12:02:53.245Z,16.77
2018-11-14T12:05:21.331Z,20.37
2018-11-14T12:07:49.428Z,19.33
2018-11-14T12:10:17.514Z,20.63
2018-11-14T12:12:46.063Z,14.27
2018-11-14T12:15:14.630Z,25.60
2018-11-14T12:17:43.256Z,10.33
2018-11-14T12:20:12.923Z,20.73
2018-11-14T12:22:41.621Z,20.67
2018-11-14T12:25:11.728Z,21.40
2018-11-14T12:27:39.953Z,23.73
2018-11-14T12:30:11.093Z,21.70
2018-11-14T12:32:39.335Z,22.27
2018-11-14T12:35:08.653Z,20.77
2018-11-14T12:37:36.689Z,15.70
2018-11-14T12:40:05.182Z,21.03
2018-11-14T12:42:33.281Z,22.07
2018-11-14T12:45:01.462Z,21.80
2018-11-14T12:47:29.478Z,21.33
2018-11-14T12:49:57.644Z,19.07
2018-11-14T12:52:25.745Z,21.43
2018-11-14T12:54:53.824Z,21.00
2018-11-14T12:57:21.932Z,18.23
2018-11-14T12:59:50.030Z,21.87
2018-11-14T13:02:18.159Z,21.90
2018-11-14T13:04:46.218Z,18.87
2018-11-14T13:07:14.358Z,14.30
2018-11-14T13:09:42.449Z,15.80
2018-11-14T13:12:10.946Z,13.67
2018-11-14T13:14:39.089Z,15.40
2018-11-14T13:17:07.174Z,14.80
2018-11-14T13:19:35.337Z,15.87
2018-11-14T13:22:03.515Z,15.23
2018-11-14T13:24:31.823Z,15.17
2018-11-14T13:27:00.303Z,25.00
2018-11-14T13:29:28.685Z,15.57
2018-11-14T13:31:56.753Z,21.93
2018-11-14T13:34:25.145Z,19.10
2018-11-14T13:36:53.233Z,17.83
2018-11-14T13:39:21.327Z,20.23
2018-11-14T13:41:49.506Z,17.80
2018-11-14T13:44:17.593Z,19.60
2018-11-14T13:46:45.673Z,20.53
2018-11-14T13:49:14.178Z,20.03
2018-11-14T13:51:41.914Z,18.77
2018-11-14T13:54:09.998Z,21.27
2018-11-14T13:56:38.087Z,24.20
2018-11-14T13:59:06.498Z,20.53
2018-11-14T14:01:34.580Z,22.93
2018-11-14T14:04:02.669Z,23.87
2018-11-14T14:06:30.954Z,24.80
2018-11-14T14:08:59.083Z,25.40
2018-11-14T14:11:27.349Z,23.33
2018-11-14T14:14:00.933Z,27.60
2018-11-14T14:16:29.165Z,32.20
2018-11-14T14:18:57.089Z,28.80
2018-11-14T14:21:25.381Z,25.30
2018-11-14T14:23:53.460Z,35.87
2018-11-14T14:26:21.551Z,31.57
2018-11-14T14:28:49.649Z,36.63
2018-11-14T14:31:17.747Z,35.27
2018-11-14T14:33:45.839Z,84.83
2018-11-14T14:36:13.943Z,59.53
2018-11-14T14:38:42.034Z,68.00
2018-11-14T14:41:10.132Z,73.83
2018-11-14T14:43:38.293Z,59.40
2018-11-14T14:46:06.590Z,36.37
2018-11-14T14:48:34.695Z,34.40
2018-11-14T14:51:02.829Z,37.80
2018-11-14T14:53:30.915Z,37.37
2018-11-14T14:55:59.012Z,44.03
2018-11-14T14:58:27.104Z,37.00
2018-11-14T15:00:55.212Z,33.23
2018-11-14T15:03:23.305Z,37.97
2018-11-14T15:05:51.404Z,50.90
2018-11-14T15:08:19.501Z,45.17
2018-11-14T15:10:47.590Z,41.80
2018-11-14T15:13:15.678Z,47.37
2018-11-14T15:15:43.886Z,46.20
2018-11-14T15:18:11.871Z,38.53
2018-11-14T15:20:39.989Z,33.93
2018-11-14T15:23:08.078Z,43.17
2018-11-14T15:25:36.167Z,36.07
2018-11-14T15:28:04.272Z,34.63
2018-11-14T15:30:32.350Z,35.33
2018-11-14T15:33:00.444Z,44.53
2018-11-14T15:35:28.523Z,45.60
2018-11-14T15:37:56.702Z,52.37
2018-11-14T15:40:25.938Z,54.43
2018-11-14T15:42:54.094Z,46.50
2018-11-14T15:45:23.627Z,44.67
2018-11-14T15:47:51.800Z,59.97
2018-11-14T15:50:21.094Z,46.37
2018-11-14T15:52:50.000Z,52.47
2018-11-14T15:55:19.084Z,43.00
2018-11-14T15:57:47.288Z,44.67
2018-11-14T16:00:17.479Z,39.17
2018-11-14T16:02:45.568Z,36.33
2018-11-14T16:05:15.165Z,41.30
2018-11-14T16:07:44.274Z,41.20
2018-11-14T16:10:13.462Z,45.70
2018-11-14T16:12:42.188Z,43.63
2018-11-14T16:15:12.061Z,46.53
2018-11-14T16:17:40.543Z,47.70
2018-11-14T16:20:10.265Z,54.90
2018-11-14T16:22:38.419Z,45.33
2018-11-14T16:25:07.896Z,43.53
2018-11-14T16:27:35.960Z,46.63
2018-11-14T16:30:05.124Z,34.30
2018-11-14T16:32:33.265Z,32.03
2018-11-14T16:35:01.363Z,36.27
2018-11-14T16:37:29.452Z,34.57
2018-11-14T16:39:57.564Z,42.13
2018-11-14T16:42:25.655Z,42.17
2018-11-14T16:44:53.767Z,43.77
2018-11-14T16:47:21.861Z,42.83
2018-11-14T16:49:49.959Z,46.23
2018-11-14T16:52:18.056Z,39.73
2018-11-14T16:54:46.155Z,38.90
2018-11-14T16:57:14.251Z,43.13
2018-11-14T16:59:42.347Z,39.50
2018-11-14T17:02:10.493Z,41.03
2018-11-14T17:04:38.591Z,36.90
2018-11-14T17:07:06.725Z,34.73
2018-11-14T17:09:34.824Z,40.53
2018-11-14T17:12:02.917Z,40.73
2018-11-14T17:14:31.016Z,42.57
2018-11-14T17:16:59.103Z,41.33
2018-11-14T17:19:27.208Z,41.03
2018-11-14T17:21:55.296Z,39.53
2018-11-14T17:24:23.410Z,48.80
2018-11-14T17:26:51.485Z,53.50
2018-11-14T17:29:19.595Z,49.40
2018-11-14T17:31:47.696Z,41.83
2018-11-14T17:34:15.814Z,46.07
2018-11-14T17:36:43.902Z,46.13
2018-11-14T17:39:13.294Z,42.53
2018-11-14T17:41:41.857Z,42.03
2018-11-14T17:44:09.910Z,44.03
2018-11-14T17:46:38.012Z,42.03
2018-11-14T17:49:06.261Z,52.53
2018-11-14T17:51:34.369Z,43.83
2018-11-14T17:54:02.507Z,43.57
2018-11-14T17:56:30.607Z,47.40
2018-11-14T17:58:58.720Z,47.50
2018-11-14T18:01:26.822Z,46.43
2018-11-14T18:03:54.910Z,60.00
2018-11-14T18:06:23.082Z,40.87
2018-11-14T18:08:51.178Z,47.77
2018-11-14T18:11:19.338Z,41.83
2018-11-14T18:13:47.432Z,47.87
2018-11-14T18:16:15.534Z,42.80
2018-11-14T18:18:43.635Z,46.00
2018-11-14T18:21:11.730Z,51.33
2018-11-14T18:23:39.818Z,46.40
2018-11-14T18:26:07.926Z,48.20
2018-11-14T18:28:36.027Z,35.77
2018-11-14T18:31:04.139Z,43.23
2018-11-14T18:33:32.225Z,39.27
2018-11-14T18:36:00.321Z,39.60
2018-11-14T18:38:28.512Z,39.33
2018-11-14T18:40:56.706Z,38.70
2018-11-14T18:43:24.793Z,35.00
2018-11-14T18:45:52.948Z,40.50
2018-11-14T18:48:20.991Z,41.87
2018-11-14T18:50:49.096Z,43.90
2018-11-14T18:53:17.212Z,36.97
2018-11-14T18:55:45.277Z,33.63
2018-11-14T18:58:13.361Z,34.03
2018-11-14T19:00:41.461Z,28.53
2018-11-14T19:03:09.549Z,37.93
2018-11-14T19:05:38.488Z,36.87
2018-11-14T19:08:06.581Z,27.93
2018-11-14T19:10:35.045Z,37.57
2018-11-14T19:13:03.137Z,33.20
2018-11-14T19:15:32.625Z,30.97
2018-11-14T19:18:00.754Z,53.63
2018-11-14T19:20:30.089Z,32.53
2018-11-14T19:22:58.989Z,30.47
2018-11-14T19:25:29.511Z,28.53
2018-11-14T19:27:57.656Z,25.00
2018-11-14T19:30:28.083Z,26.80
2018-11-14T19:32:56.710Z,29.93
2018-11-14T19:35:24.785Z,28.03
2018-11-14T19:37:53.672Z,27.83
2018-11-14T19:40:27.162Z,29.70
2018-11-14T19:42:56.679Z,25.67
2018-11-14T19:45:26.075Z,29.77
2018-11-14T19:47:54.357Z,33.23
2018-11-14T19:50:22.983Z,32.97
2018-11-14T19:52:51.432Z,34.80
2018-11-14T19:55:21.024Z,31.63
2018-11-14T19:57:50.163Z,33.97
2018-11-14T20:00:24.850Z,29.83
2018-11-14T20:02:52.962Z,29.30
2018-11-14T20:05:21.512Z,28.03
2018-11-14T20:07:49.696Z,29.77
2018-11-14T20:10:19.115Z,34.57
2018-11-14T20:12:47.646Z,30.87
2018-11-14T20:15:17.188Z,30.23
2018-11-14T20:17:45.783Z,25.47
2018-11-14T20:20:20.498Z,25.00
2018-11-14T20:22:48.662Z,28.17
2018-11-14T20:25:16.746Z,25.47
2018-11-14T20:27:45.316Z,26.67
2018-11-14T20:30:20.682Z,33.63
2018-11-14T20:32:49.355Z,26.67
2018-11-14T20:35:18.665Z,27.57
2018-11-14T20:37:46.737Z,28.87
2018-11-14T20:40:16.037Z,33.90
2018-11-14T20:42:44.522Z,25.03
2018-11-14T20:45:15.228Z,25.47
2018-11-14T20:47:43.315Z,23.27
2018-11-14T20:50:14.982Z,28.13
2018-11-14T20:52:43.547Z,31.50
2018-11-14T20:55:17.679Z,27.87
2018-11-14T20:57:45.803Z,27.57
2018-11-14T21:00:21.932Z,29.03
2018-11-14T21:02:50.378Z,31.90
2018-11-14T21:05:18.539Z,26.60
2018-11-14T21:07:46.648Z,30.10
2018-11-14T21:10:16.013Z,29.17
2018-11-14T21:12:44.275Z,29.83
2018-11-14T21:15:15.385Z,23.80
2018-11-14T21:17:43.595Z,22.40
2018-11-14T21:20:11.803Z,25.97
2018-11-14T21:22:40.502Z,27.30
2018-11-14T21:25:10.246Z,28.30
2018-11-14T21:27:38.547Z,26.20
2018-11-14T21:30:08.575Z,23.93
2018-11-14T21:32:36.864Z,26.67
2018-11-14T21:35:07.086Z,24.97
2018-11-14T21:37:35.161Z,35.47
2018-11-14T21:40:03.524Z,30.13
2018-11-14T21:42:31.500Z,30.63
2018-11-14T21:44:59.588Z,27.87
2018-11-14T21:47:33.325Z,31.97
2018-11-14T21:50:01.548Z,31.53
2018-11-14T21:52:29.643Z,30.13
2018-11-14T21:54:57.723Z,34.00
2018-11-14T21:57:25.793Z,31.23
2018-11-14T21:59:54.076Z,30.17
2018-11-14T22:02:22.020Z,28.07
2018-11-14T22:04:50.133Z,29.60
2018-11-14T22:07:18.212Z,29.47
2018-11-14T22:09:46.289Z,28.43
2018-11-14T22:12:14.368Z,33.07
2018-11-14T22:14:42.436Z,28.57
2018-11-14T22:17:10.518Z,32.30
2018-11-14T22:19:38.588Z,32.87
2018-11-14T22:22:06.658Z,34.17
2018-11-14T22:24:34.732Z,32.17
2018-11-14T22:27:02.813Z,31.17
2018-11-14T22:29:30.908Z,31.13
2018-11-14T22:31:58.996Z,32.53
2018-11-14T22:34:27.072Z,32.00
2018-11-14T22:36:55.199Z,32.23
2018-11-14T22:39:23.283Z,24.70
2018-11-14T22:41:51.372Z,35.70
2018-11-14T22:44:19.456Z,27.10
2018-11-14T22:46:47.543Z,33.80
2018-11-14T22:49:15.624Z,30.00
2018-11-14T22:51:43.740Z,35.93
2018-11-14T22:54:11.825Z,36.37
2018-11-14T22:56:39.905Z,31.80
2018-11-14T22:59:08.000Z,29.43
2018-11-14T23:01:36.117Z,27.37
2018-11-14T23:04:04.339Z,33.90
2018-11-14T23:06:32.427Z,36.13
2018-11-14T23:09:00.518Z,33.40
2018-11-14T23:11:28.602Z,38.37
2018-11-14T23:13:56.695Z,36.53
2018-11-14T23:16:24.770Z,39.03
2018-11-14T23:18:52.863Z,34.13
2018-11-14T23:21:20.962Z,34.93
2018-11-14T23:23:49.048Z,36.50
2018-11-14T23:26:17.142Z,32.47
2018-11-14T23:28:45.232Z,35.70
2018-11-14T23:31:13.299Z,35.07
2018-11-14T23:33:41.380Z,34.57
2018-11-14T23:36:09.447Z,32.77
2018-11-14T23:38:37.533Z,35.63
2018-11-14T23:41:05.906Z,36.57
2018-11-14T23:43:33.984Z,39.63
2018-11-14T23:46:02.057Z,38.03
2018-11-14T23:48:30.131Z,39.87
2018-11-14T23:50:58.204Z,36.23
2018-11-14T23:53:26.279Z,38.30
2018-11-14T23:55:54.361Z,36.70
2018-11-14T23:58:22.449Z,40.47
